Time;durP1;ratioP1;P1;durP2;ratioP2;P2;SDS_P1;SDS_P2;PMS_P1;PMS_P2;Temp;Humidity;BMP_temperature;BMP_pressure;BME280_temperature;BME280_humidity;BME280_pressure;Samples;Min_cycle;Max_cycle;Signal;HPM_P1;HPM_P2
2023/08/09 00:00:31;;;;;;;4.53;2.60;;;;;;;12.68;100.00;96662.25;4987395;28;20121;-67
2023/08/09 00:03:01;;;;;;;4.57;2.78;;;;;;;12.71;100.00;96661.47;4980938;28;20411;-67
2023/08/09 00:05:26;;;;;;;7.97;2.45;;;;;;;12.84;100.00;96660.00;4974384;28;20423;-67
2023/08/09 00:07:52;;;;;;;4.80;2.50;;;;;;;12.97;100.00;96655.75;4980487;28;20042;-67
2023/08/09 00:10:18;;;;;;;3.72;2.35;;;;;;;13.07;100.00;96654.25;4976028;28;20137;-68
2023/08/09 00:12:43;;;;;;;4.35;2.45;;;;;;;13.27;100.00;96662.19;4980662;28;20104;-68
2023/08/09 00:15:09;;;;;;;4.85;2.97;;;;;;;13.48;100.00;96650.53;4975684;28;20049;-68
2023/08/09 00:17:35;;;;;;;3.83;2.53;;;;;;;13.42;100.00;96646.59;4981546;28;20382;-67
2023/08/09 00:20:00;;;;;;;6.38;2.33;;;;;;;13.42;100.00;96655.63;4981335;28;20041;-67
2023/08/09 00:22:26;;;;;;;4.40;2.55;;;;;;;13.12;100.00;96653.88;4992378;28;20077;-68
2023/08/09 00:24:52;;;;;;;4.90;2.50;;;;;;;13.11;100.00;96646.81;5000871;28;20133;-68
2023/08/09 00:27:18;;;;;;;4.93;2.53;;;;;;;13.19;100.00;96642.13;4994847;28;20647;-68
2023/08/09 00:29:43;;;;;;;3.60;2.47;;;;;;;13.11;100.00;96649.56;4999204;28;20602;-68
2023/08/09 00:32:09;;;;;;;5.10;2.65;;;;;;;12.99;100.00;96655.38;4995507;28;20108;-68
2023/08/09 00:34:34;;;;;;;4.45;2.65;;;;;;;12.96;100.00;96642.38;5001053;28;20061;-68
2023/08/09 00:37:00;;;;;;;5.10;2.70;;;;;;;12.89;100.00;96637.66;5000727;28;20042;-68
2023/08/09 00:39:25;;;;;;;5.40;2.85;;;;;;;12.90;100.00;96641.19;4993192;28;20069;-67
2023/08/09 00:41:51;;;;;;;5.32;2.92;;;;;;;13.03;100.00;96647.94;4991729;28;20060;-67
2023/08/09 00:44:16;;;;;;;5.20;2.63;;;;;;;13.26;100.00;96646.88;4994743;28;20049;-67
2023/08/09 00:46:42;;;;;;;7.30;2.67;;;;;;;13.37;100.00;96651.28;5002404;28;20042;-67
2023/08/09 00:49:07;;;;;;;4.50;2.88;;;;;;;13.36;100.00;96654.41;4985476;28;20074;-67
2023/08/09 00:51:33;;;;;;;4.65;3.30;;;;;;;13.29;100.00;96655.16;4984691;28;20054;-68
2023/08/09 00:53:59;;;;;;;7.70;3.25;;;;;;;13.19;100.00;96653.13;4985118;28;20049;-67
2023/08/09 00:56:24;;;;;;;4.85;2.83;;;;;;;13.19;100.00;96653.91;4980650;28;20115;-67
2023/08/09 00:58:50;;;;;;;4.97;2.50;;;;;;;13.26;100.00;96649.63;4985068;28;20176;-68
2023/08/09 01:01:15;;;;;;;7.22;2.90;;;;;;;13.12;100.00;96642.88;4999458;28;20364;-68
2023/08/09 01:03:40;;;;;;;6.65;3.03;;;;;;;13.09;100.00;96648.34;5003263;28;20114;-67
2023/08/09 01:06:15;;;;;;;4.75;2.90;;;;;;;12.99;100.00;96645.16;4998377;28;20069;-69
2023/08/09 01:08:49;;;;;;;6.10;3.08;;;;;;;12.94;100.00;96647.47;5001579;28;20073;-67
2023/08/09 01:11:29;;;;;;;4.07;2.90;;;;;;;12.96;100.00;96645.94;4999034;28;20045;-68
2023/08/09 01:13:55;;;;;;;5.43;2.58;;;;;;;13.12;100.00;96651.13;5002675;28;20111;-68
2023/08/09 01:16:23;;;;;;;8.07;2.47;;;;;;;13.45;100.00;96651.31;4998680;28;20038;-68
2023/08/09 01:18:51;;;;;;;6.70;2.88;;;;;;;13.53;100.00;96641.91;5002813;28;20125;-68
2023/08/09 01:21:19;;;;;;;5.60;2.63;;;;;;;13.68;100.00;96635.28;4990670;28;20045;-67
2023/08/09 01:23:46;;;;;;;5.43;2.65;;;;;;;13.62;100.00;96641.56;4984523;28;20129;-67
2023/08/09 01:26:12;;;;;;;4.78;2.30;;;;;;;13.37;100.00;96639.50;4979982;28;20503;-69
2023/08/09 01:28:38;;;;;;;5.47;2.67;;;;;;;13.29;100.00;96635.09;4985346;28;20085;-68
2023/08/09 01:31:03;;;;;;;5.15;2.85;;;;;;;13.18;100.00;96627.59;4979918;28;20069;-67
2023/08/09 01:33:29;;;;;;;5.97;2.53;;;;;;;13.27;100.00;96630.00;4981503;28;20552;-68
2023/08/09 01:36:13;;;;;;;6.13;2.75;;;;;;;13.39;100.00;96637.91;4988104;28;20050;-67
2023/08/09 01:38:47;;;;;;;4.03;2.67;;;;;;;13.42;100.00;96635.59;4990558;28;20522;-66
2023/08/09 01:41:13;;;;;;;4.13;2.30;;;;;;;13.30;100.00;96633.94;4996308;28;20038;-69
2023/08/09 01:43:39;;;;;;;6.22;2.83;;;;;;;12.96;100.00;96631.38;4999732;28;20041;-68
2023/08/09 01:46:06;;;;;;;7.53;2.78;;;;;;;12.73;100.00;96620.63;5000353;28;20034;-66
2023/08/09 01:48:31;;;;;;;6.10;2.85;;;;;;;12.67;100.00;96622.97;5000162;28;20041;-68
2023/08/09 01:50:57;;;;;;;6.75;3.38;;;;;;;12.65;100.00;96630.81;5003138;28;20042;-67
2023/08/09 01:53:23;;;;;;;4.00;3.00;;;;;;;12.81;100.00;96628.56;4981882;28;20273;-67
2023/08/09 01:55:48;;;;;;;5.68;2.67;;;;;;;12.98;100.00;96631.78;4983031;28;20073;-68
2023/08/09 01:58:14;;;;;;;7.28;3.00;;;;;;;13.00;100.00;96619.25;4977936;28;20093;-68
2023/08/09 02:00:39;;;;;;;4.95;2.45;;;;;;;12.75;100.00;96610.84;4997316;28;20042;-68
2023/08/09 02:03:05;;;;;;;5.00;2.88;;;;;;;12.61;100.00;96611.53;4996665;28;20037;-68
2023/08/09 02:05:30;;;;;;;4.10;2.78;;;;;;;12.59;100.00;96615.84;5002090;28;20038;-68
2023/08/09 02:07:56;;;;;;;5.50;3.20;;;;;;;12.65;100.00;96617.06;5002690;28;20037;-67
2023/08/09 02:10:21;;;;;;;5.22;2.45;;;;;;;12.76;100.00;96633.63;4998785;28;20511;-68
2023/08/09 02:12:47;;;;;;;5.38;3.00;;;;;;;12.94;100.00;96633.75;5002486;28;20041;-68
2023/08/09 02:15:15;;;;;;;5.20;2.72;;;;;;;13.11;100.00;96627.56;4997048;28;20034;-69
2023/08/09 02:17:43;;;;;;;3.85;2.55;;;;;;;13.25;100.00;96629.56;5002866;28;20046;-66
2023/08/09 02:20:09;;;;;;;4.70;2.13;;;;;;;13.35;100.00;96625.34;4998624;28;20495;-69
2023/08/09 02:22:39;;;;;;;7.05;2.70;;;;;;;13.39;100.00;96643.41;4983805;28;20042;-68
2023/08/09 02:25:06;;;;;;;5.57;2.60;;;;;;;13.40;100.00;96633.22;4979743;28;20034;-70
2023/08/09 02:27:33;;;;;;;4.30;2.53;;;;;;;13.35;100.00;96639.09;4983397;28;20042;-69
2023/08/09 02:29:58;;;;;;;5.88;2.88;;;;;;;13.31;100.00;96641.03;4982762;28;20053;-69
2023/08/09 02:32:24;;;;;;;3.67;2.30;;;;;;;13.26;100.00;96633.91;4976485;28;20993;-68
2023/08/09 02:34:49;;;;;;;5.32;2.53;;;;;;;13.25;100.00;96637.81;4982130;28;20517;-69
2023/08/09 02:37:14;;;;;;;5.35;2.70;;;;;;;13.26;100.00;96638.63;4977792;28;20170;-69
2023/08/09 02:39:40;;;;;;;3.83;2.63;;;;;;;13.30;100.00;96640.22;4981712;28;20050;-69
2023/08/09 02:42:05;;;;;;;5.15;2.65;;;;;;;13.29;100.00;96638.66;4986266;28;20077;-68
2023/08/09 02:44:32;;;;;;;5.72;2.50;;;;;;;13.26;100.00;96638.63;4984255;28;20042;-68
2023/08/09 02:46:58;;;;;;;4.70;2.55;;;;;;;13.27;100.00;96645.69;4990452;28;20043;-68
2023/08/09 02:49:23;;;;;;;4.72;2.63;;;;;;;13.41;100.00;96639.50;4980422;28;20045;-68
2023/08/09 02:51:49;;;;;;;5.78;2.63;;;;;;;13.56;100.00;96639.19;4982332;28;20053;-69
2023/08/09 02:54:14;;;;;;;4.28;2.63;;;;;;;13.66;100.00;96631.34;4978053;28;20038;-69
2023/08/09 02:56:40;;;;;;;5.22;2.75;;;;;;;13.75;100.00;96643.56;4982602;28;20105;-69
2023/08/09 02:59:05;;;;;;;5.90;3.00;;;;;;;13.65;100.00;96638.81;4990578;28;20523;-70
2023/08/09 03:01:30;;;;;;;5.43;3.42;;;;;;;13.61;100.00;96651.75;5000656;28;20077;-69
2023/08/09 03:03:56;;;;;;;4.43;2.90;;;;;;;13.57;100.00;96649.00;4997012;28;20042;-69
2023/08/09 03:06:22;;;;;;;5.07;3.10;;;;;;;13.55;100.00;96645.84;4997443;28;20049;-69
2023/08/09 03:08:49;;;;;;;4.13;2.83;;;;;;;13.57;100.00;96650.97;5001393;28;20045;-69
2023/08/09 03:11:14;;;;;;;5.85;2.60;;;;;;;13.60;100.00;96663.97;4993561;28;20061;-69
2023/08/09 03:13:40;;;;;;;4.05;2.47;;;;;;;13.68;100.00;96665.53;5001128;28;20046;-70
2023/08/09 03:16:06;;;;;;;3.60;2.40;;;;;;;13.70;100.00;96660.47;4996433;28;20406;-68
2023/08/09 03:18:31;;;;;;;6.50;2.20;;;;;;;13.71;100.00;96664.00;5001314;28;20038;-69
2023/08/09 03:20:57;;;;;;;3.95;2.50;;;;;;;13.73;100.00;96670.69;4996361;28;20038;-70
2023/08/09 03:23:23;;;;;;;4.07;2.47;;;;;;;13.72;100.00;96660.06;4977642;28;20072;-70
2023/08/09 03:25:48;;;;;;;4.53;2.80;;;;;;;13.77;100.00;96671.50;4981574;28;20072;-70
2023/08/09 03:28:13;;;;;;;5.43;2.70;;;;;;;13.69;100.00;96663.59;4976784;28;20049;-70
2023/08/09 03:30:39;;;;;;;4.97;2.78;;;;;;;13.61;100.00;96656.47;4981270;28;20096;-70
2023/08/09 03:33:04;;;;;;;5.65;2.97;;;;;;;13.76;100.00;96669.13;4977652;28;20464;-69
2023/08/09 03:35:30;;;;;;;4.32;2.55;;;;;;;13.93;100.00;96671.13;4981810;28;20054;-69
2023/08/09 03:37:55;;;;;;;4.05;2.35;;;;;;;14.04;100.00;96664.88;4981824;28;20050;-70
2023/08/09 03:40:21;;;;;;;5.28;2.58;;;;;;;14.08;100.00;96660.16;4977462;28;20042;-69
2023/08/09 03:42:46;;;;;;;4.70;2.70;;;;;;;13.95;100.00;96666.03;4995140;28;20069;-70
2023/08/09 03:45:12;;;;;;;3.70;2.00;;;;;;;13.98;100.00;96658.97;4987680;28;20041;-68
2023/08/09 03:47:37;;;;;;;3.35;2.13;;;;;;;13.92;100.00;96650.31;5000547;28;20038;-70
2023/08/09 03:50:05;;;;;;;6.72;2.80;;;;;;;13.70;100.00;96657.72;4998082;28;20065;-69
2023/08/09 03:52:31;;;;;;;7.80;3.22;;;;;;;13.57;100.00;96661.97;5001410;28;20048;-69
2023/08/09 03:54:56;;;;;;;6.40;2.55;;;;;;;13.66;100.00;96665.16;5000725;28;20104;-68
2023/08/09 03:57:22;;;;;;;4.57;2.60;;;;;;;13.60;100.00;96660.44;4996987;28;20702;-68
2023/08/09 03:59:49;;;;;;;6.43;2.90;;;;;;;13.53;100.00;96655.69;5002489;28;20046;-68
2023/08/09 04:02:16;;;;;;;5.90;3.08;;;;;;;13.55;100.00;96662.34;5010096;28;20479;-68
2023/08/09 04:04:41;;;;;;;5.72;2.83;;;;;;;13.47;100.00;96663.53;5008448;28;20052;-69
2023/08/09 04:07:07;;;;;;;8.07;3.03;;;;;;;13.52;100.00;96668.66;4986133;28;20046;-68
2023/08/09 04:09:32;;;;;;;3.95;2.22;;;;;;;13.61;100.00;96662.00;4982724;28;20053;-69
2023/08/09 04:11:59;;;;;;;5.32;2.97;;;;;;;13.58;100.00;96658.84;5001210;28;20045;-69
2023/08/09 04:14:25;;;;;;;7.22;2.65;;;;;;;13.51;100.00;96672.56;4987618;28;20073;-70
2023/08/09 04:16:51;;;;;;;4.68;2.67;;;;;;;13.57;100.00;96678.47;4981914;28;20494;-70
2023/08/09 04:19:16;;;;;;;5.75;2.50;;;;;;;13.76;100.00;96669.91;4982253;28;20049;-70
2023/08/09 04:21:42;;;;;;;5.78;2.55;;;;;;;13.95;100.00;96677.06;4997286;28;20037;-69
2023/08/09 04:24:10;;;;;;;4.35;2.63;;;;;;;14.05;100.00;96677.47;4998709;28;20042;-69
2023/08/09 04:26:35;;;;;;;4.40;2.30;;;;;;;14.10;100.00;96672.38;5005028;28;20037;-69
2023/08/09 04:29:01;;;;;;;6.72;2.40;;;;;;;14.17;100.00;96684.56;5005095;28;20056;-69
2023/08/09 04:31:26;;;;;;;4.38;2.30;;;;;;;14.13;100.00;96688.13;5000350;28;20526;-68
2023/08/09 04:33:52;;;;;;;7.72;2.83;;;;;;;14.15;100.00;96696.78;5004178;28;20115;-69
2023/08/09 04:36:18;;;;;;;3.25;2.47;;;;;;;14.17;100.00;96685.38;5001050;28;20042;-70
2023/08/09 04:38:45;;;;;;;4.63;2.65;;;;;;;14.04;100.00;96693.19;5003436;28;20405;-70
2023/08/09 04:41:10;;;;;;;5.47;2.85;;;;;;;13.94;100.00;96696.72;4999542;28;20044;-70
2023/08/09 04:43:39;;;;;;;5.88;2.75;;;;;;;13.94;100.00;96696.72;4998110;28;20042;-69
2023/08/09 04:46:05;;;;;;;4.38;2.70;;;;;;;14.11;100.00;96706.19;4986597;28;20039;-69
2023/08/09 04:48:30;;;;;;;5.30;2.60;;;;;;;14.25;100.00;96708.19;4984398;28;20437;-69
2023/08/09 04:50:55;;;;;;;6.38;2.60;;;;;;;14.27;100.00;96700.34;4984859;28;20055;-69
2023/08/09 04:53:22;;;;;;;12.70;2.42;;;;;;;14.04;100.00;96697.91;4980224;28;20165;-69
2023/08/09 04:55:47;;;;;;;5.68;2.95;;;;;;;13.58;100.00;96694.63;4984221;28;20046;-69
2023/08/09 04:58:12;;;;;;;5.97;3.00;;;;;;;13.49;100.00;96699.69;4980016;28;20046;-69
2023/08/09 05:00:38;;;;;;;4.47;2.95;;;;;;;13.53;100.00;96691.44;4988895;28;20046;-70
2023/08/09 05:03:04;;;;;;;5.75;2.88;;;;;;;13.58;100.00;96700.13;4999075;28;20042;-69
2023/08/09 05:05:31;;;;;;;4.63;2.95;;;;;;;13.65;100.00;96710.38;4983893;28;20137;-69
2023/08/09 05:07:57;;;;;;;5.45;2.72;;;;;;;13.76;100.00;96710.41;4995650;28;20042;-69
2023/08/09 05:10:23;;;;;;;5.93;2.60;;;;;;;13.84;100.00;96705.72;4997773;28;20957;-70
2023/08/09 05:12:48;;;;;;;6.25;2.53;;;;;;;13.91;100.00;96703.78;5003257;28;20038;-69
2023/08/09 05:15:14;;;;;;;7.07;3.10;;;;;;;13.98;100.00;96702.25;4987087;28;20035;-69
2023/08/09 05:17:39;;;;;;;4.80;2.60;;;;;;;14.04;100.00;96700.66;4985955;28;20047;-69
2023/08/09 05:20:07;;;;;;;4.90;2.35;;;;;;;14.13;100.00;96701.88;4994571;28;20034;-69
2023/08/09 05:22:32;;;;;;;8.20;2.72;;;;;;;14.20;100.00;96694.81;5016844;28;20038;-69
2023/08/09 05:24:59;;;;;;;6.82;2.63;;;;;;;14.26;100.00;96702.31;5003156;28;20049;-69
2023/08/09 05:27:25;;;;;;;4.13;2.50;;;;;;;14.31;100.00;96712.13;4997049;28;20106;-69
2023/08/09 05:29:50;;;;;;;6.20;2.40;;;;;;;14.39;100.00;96721.22;5002774;28;20160;-69
2023/08/09 05:32:15;;;;;;;8.75;2.50;;;;;;;14.55;100.00;96721.63;4997953;28;20038;-68
2023/08/09 05:34:41;;;;;;;4.55;2.40;;;;;;;14.58;100.00;96726.38;5001904;28;20402;-69
2023/08/09 05:37:06;;;;;;;3.85;2.30;;;;;;;14.61;100.00;96717.31;4998000;28;20049;-69
2023/08/09 05:39:32;;;;;;;6.20;2.70;;;;;;;14.60;100.00;96718.50;5017765;28;20037;-69
2023/08/09 05:41:57;;;;;;;5.38;2.40;;;;;;;14.59;100.00;96716.16;5003983;28;20038;-70
2023/08/09 05:44:23;;;;;;;8.63;2.92;;;;;;;14.65;100.00;96717.34;4990056;28;20042;-70
2023/08/09 05:46:48;;;;;;;4.32;2.70;;;;;;;14.63;100.00;96728.75;4987134;28;20100;-68
2023/08/09 05:49:14;;;;;;;4.90;2.63;;;;;;;14.57;100.00;96729.50;4978760;28;20125;-69
2023/08/09 05:51:39;;;;;;;4.00;2.58;;;;;;;14.63;100.00;96734.25;4982906;28;20046;-69
2023/08/09 05:54:05;;;;;;;5.60;2.50;;;;;;;14.79;100.00;96733.88;4978957;28;20574;-68
2023/08/09 05:56:30;;;;;;;5.35;2.60;;;;;;;14.68;100.00;96731.13;4982942;28;20435;-68
2023/08/09 05:58:55;;;;;;;5.07;2.60;;;;;;;14.63;100.00;96731.50;4983359;28;20038;-70
2023/08/09 06:01:21;;;;;;;7.53;2.70;;;;;;;14.51;100.00;96732.66;4978206;28;20273;-69
2023/08/09 06:03:47;;;;;;;7.38;2.80;;;;;;;14.47;100.00;96726.34;4982930;28;20042;-69
2023/08/09 06:06:13;;;;;;;4.80;2.60;;;;;;;14.53;100.00;96727.53;4978585;28;20132;-69
2023/08/09 06:08:38;;;;;;;5.13;3.20;;;;;;;14.59;100.00;96727.19;5000617;28;20606;-70
2023/08/09 06:11:03;;;;;;;4.35;2.58;;;;;;;14.54;100.00;96737.38;4998782;28;20176;-70
2023/08/09 06:13:30;;;;;;;10.98;3.00;;;;;;;14.43;100.00;96731.06;4998574;28;20045;-70
2023/08/09 06:15:57;;;;;;;3.78;2.65;;;;;;;14.44;100.00;96735.41;4984492;28;20111;-69
2023/08/09 06:18:23;;;;;;;9.05;3.13;;;;;;;14.63;100.00;96733.47;4985009;28;20077;-70
2023/08/09 06:20:48;;;;;;;3.97;2.42;;;;;;;14.77;100.00;96738.22;5008995;28;20033;-70
2023/08/09 06:23:14;;;;;;;4.90;2.60;;;;;;;14.84;100.00;96744.53;5006006;28;20090;-69
2023/08/09 06:25:40;;;;;;;5.03;2.83;;;;;;;14.90;100.00;96737.41;5008387;28;20087;-68
2023/08/09 06:28:06;;;;;;;3.53;2.47;;;;;;;15.00;100.00;96744.13;4996706;28;20042;-70
2023/08/09 06:30:32;;;;;;;6.13;2.60;;;;;;;14.92;100.00;96750.81;4994311;28;20104;-69
2023/08/09 06:32:58;;;;;;;5.88;2.90;;;;;;;14.70;100.00;96745.28;4982486;28;20062;-69
2023/08/09 06:35:23;;;;;;;5.78;2.83;;;;;;;14.70;100.00;96758.28;4978610;28;20070;-69
2023/08/09 06:37:50;;;;;;;3.78;2.45;;;;;;;14.82;100.00;96762.63;4981100;28;20081;-70
2023/08/09 06:40:16;;;;;;;5.60;3.13;;;;;;;14.96;100.00;96770.13;4977424;28;20142;-71
2023/08/09 06:42:44;;;;;;;6.63;2.88;;;;;;;14.83;100.00;96770.50;4983861;28;20424;-71
2023/08/09 06:45:10;;;;;;;5.72;3.00;;;;;;;14.71;100.00;96773.63;4977383;28;20039;-70
2023/08/09 06:47:35;;;;;;;8.00;3.10;;;;;;;14.82;100.00;96782.72;4982857;28;20105;-70
2023/08/09 06:50:03;;;;;;;7.05;2.90;;;;;;;14.85;100.00;96784.69;4981244;28;20436;-69
2023/08/09 06:52:28;;;;;;;8.77;2.95;;;;;;;14.67;100.00;96781.13;4978565;28;20136;-69
2023/08/09 06:54:54;;;;;;;7.43;3.25;;;;;;;14.69;100.00;96784.28;4982931;28;20078;-69
2023/08/09 06:57:19;;;;;;;6.45;3.10;;;;;;;14.81;100.00;96794.16;4977678;28;20092;-69
2023/08/09 06:59:45;;;;;;;6.50;3.70;;;;;;;14.80;100.00;96785.09;4979879;28;20116;-68
2023/08/09 07:02:10;;;;;;;6.65;3.25;;;;;;;14.77;100.00;96774.84;4977552;28;20042;-68
2023/08/09 07:04:36;;;;;;;5.25;3.22;;;;;;;14.71;100.00;96774.44;4965197;28;20053;-68
2023/08/09 07:07:02;;;;;;;9.43;2.88;;;;;;;14.97;100.00;96768.94;4980529;28;20116;-69
2023/08/09 07:09:28;;;;;;;4.72;3.00;;;;;;;15.18;100.00;96770.91;4977893;28;20081;-69
2023/08/09 07:11:53;;;;;;;4.95;2.70;;;;;;;15.43;100.00;96768.09;4987089;28;20042;-71
2023/08/09 07:14:18;;;;;;;6.40;2.60;;;;;;;15.51;100.00;96777.19;4991715;28;20173;-69
2023/08/09 07:16:43;;;;;;;4.68;2.28;;;;;;;15.64;100.00;96778.31;4981604;28;20046;-70
2023/08/09 07:19:10;;;;;;;6.90;2.92;;;;;;;15.77;100.00;96785.06;4975637;28;20039;-70
2023/08/09 07:21:35;;;;;;;5.00;2.70;;;;;;;15.96;100.00;96788.53;4990273;28;20038;-69
2023/08/09 07:24:01;;;;;;;7.82;2.40;;;;;;;16.15;100.00;96782.53;4994387;28;20046;-68
2023/08/09 07:26:27;;;;;;;5.55;2.35;;;;;;;16.34;100.00;96784.03;4982010;28;20043;-69
2023/08/09 07:28:52;;;;;;;4.15;2.20;;;;;;;16.45;100.00;96792.25;4982635;28;20049;-68
2023/08/09 07:31:22;;;;;;;4.28;2.28;;;;;;;16.44;100.00;96794.25;4984203;28;20478;-68
2023/08/09 07:33:48;;;;;;;5.38;2.45;;;;;;;16.49;100.00;96801.31;5001013;28;20053;-69
2023/08/09 07:36:13;;;;;;;5.65;2.13;;;;;;;16.43;100.00;96794.63;4997456;28;20052;-68
2023/08/09 07:38:39;;;;;;;4.10;2.15;;;;;;;16.34;100.00;96797.06;5000819;28;20390;-69
2023/08/09 07:41:04;;;;;;;4.35;1.88;;;;;;;16.24;100.00;96802.25;4996947;28;20038;-69
2023/08/09 07:43:30;;;;;;;7.20;2.53;;;;;;;16.16;100.00;96810.97;4999453;28;20108;-68
2023/08/09 07:45:56;;;;;;;7.53;2.38;;;;;;;16.28;100.00;96807.75;5001597;28;20741;-68
2023/08/09 07:48:22;;;;;;;7.75;2.25;;;;;;;16.26;100.00;96799.06;5012428;28;20054;-68
2023/08/09 07:50:47;;;;;;;3.53;2.15;;;;;;;16.28;100.00;96799.47;5001485;28;20123;-68
2023/08/09 07:53:13;;;;;;;4.78;2.17;;;;;;;16.30;100.00;96788.78;4995963;28;20524;-71
2023/08/09 07:55:39;;;;;;;5.78;2.42;;;;;;;16.58;100.00;96787.84;5000350;28;20052;-69
2023/08/09 07:58:05;;;;;;;4.88;1.83;;;;;;;16.48;100.00;96777.63;4996457;28;20129;-68
2023/08/09 08:00:30;;;;;;;3.65;1.80;;;;;;;16.54;100.00;96778.78;5001513;28;20041;-69
2023/08/09 08:02:56;;;;;;;4.28;2.42;;;;;;;16.73;100.00;96785.78;5000075;28;20034;-69
2023/08/09 08:05:22;;;;;;;8.07;2.83;;;;;;;16.80;100.00;96779.41;4993180;28;20543;-69
2023/08/09 08:07:47;;;;;;;4.22;1.85;;;;;;;16.80;100.00;96790.47;5000936;28;20033;-69
2023/08/09 08:10:14;;;;;;;8.18;1.88;;;;;;;16.82;100.00;96791.63;4996012;28;20053;-70
2023/08/09 08:12:40;;;;;;;5.38;2.22;;;;;;;16.77;100.00;96791.28;4989077;28;20052;-68
2023/08/09 08:15:09;;;;;;;5.32;2.17;;;;;;;16.74;100.00;96789.31;4996246;28;20092;-70
2023/08/09 08:17:35;;;;;;;5.38;1.90;;;;;;;16.86;100.00;96794.41;4981972;28;20039;-68
2023/08/09 08:20:01;;;;;;;6.93;2.33;;;;;;;16.97;100.00;96795.13;4987652;28;20057;-68
2023/08/09 08:22:26;;;;;;;4.65;2.35;;;;;;;16.90;100.00;96802.69;4996100;28;20080;-68
2023/08/09 08:24:52;;;;;;;4.95;2.55;;;;;;;16.88;100.00;96803.09;4993184;28;20157;-69
2023/08/09 08:27:18;;;;;;;7.53;2.35;;;;;;;16.81;100.00;96805.88;4988535;28;20046;-69
2023/08/09 08:29:43;;;;;;;7.20;2.40;;;;;;;16.92;100.00;96808.59;4999156;28;20092;-69
2023/08/09 08:32:10;;;;;;;8.05;2.20;;;;;;;16.98;100.00;96810.53;4998508;28;20553;-70
2023/08/09 08:34:37;;;;;;;6.18;2.60;;;;;;;16.90;100.00;96809.00;5018466;28;20069;-69
2023/08/09 08:37:04;;;;;;;4.90;2.20;;;;;;;16.82;100.00;96813.78;4989929;28;20519;-69
2023/08/09 08:39:30;;;;;;;5.25;2.38;;;;;;;16.77;100.00;96821.72;4999280;28;20184;-69
2023/08/09 08:41:58;;;;;;;3.65;2.15;;;;;;;16.84;100.00;96815.38;5002760;28;20426;-68
2023/08/09 08:44:25;;;;;;;4.57;2.38;;;;;;;16.82;100.00;96822.06;5000519;28;20049;-68
2023/08/09 08:46:51;;;;;;;3.92;1.98;;;;;;;16.93;100.00;96816.50;5005344;28;20037;-68
2023/08/09 08:49:20;;;;;;;5.88;2.42;;;;;;;16.98;100.00;96809.75;4997523;28;20514;-69
2023/08/09 08:51:50;;;;;;;5.87;2.40;;;;;;;16.96;100.00;96809.34;5001825;28;20072;-68
2023/08/09 08:54:15;;;;;;;6.25;2.35;;;;;;;16.87;100.00;96815.38;4996117;28;20293;-70
2023/08/09 08:56:41;;;;;;;8.80;3.22;;;;;;;16.97;100.00;96811.72;4998569;28;20042;-69
2023/08/09 08:59:08;;;;;;;4.45;2.13;;;;;;;16.99;100.00;96808.53;4995813;28;20048;-71
2023/08/09 09:01:34;;;;;;;5.60;2.15;;;;;;;17.07;100.00;96817.56;5002335;28;20038;-71
2023/08/09 09:04:01;;;;;;;7.53;2.40;;;;;;;17.28;100.00;96811.09;5002147;28;20038;-71
2023/08/09 09:06:27;;;;;;;4.72;2.33;;;;;;;17.27;100.00;96821.38;4997870;28;20038;-70
2023/08/09 09:08:56;;;;;;;4.40;2.30;;;;;;;17.28;100.00;96822.94;5003827;28;20398;-71
2023/08/09 09:11:22;;;;;;;6.57;2.20;;;;;;;17.28;100.00;96822.94;4999337;28;21429;-71
2023/08/09 09:13:50;;;;;;;4.30;2.20;;;;;;;17.38;100.00;96821.28;5003870;28;20293;-71
2023/08/09 09:16:17;;;;;;;4.78;2.50;;;;;;;17.56;100.00;96819.16;4999381;28;20478;-71
2023/08/09 09:18:45;;;;;;;5.78;2.42;;;;;;;17.77;100.00;96822.91;5003953;28;20046;-71
2023/08/09 09:21:11;;;;;;;8.65;2.00;;;;;;;17.79;100.00;96828.84;4994339;28;20049;-71
2023/08/09 09:23:38;;;;;;;11.32;2.40;;;;;;;17.85;100.00;96824.44;5004580;28;20033;-71
2023/08/09 09:26:11;;;;;;;6.65;2.55;;;;;;;17.81;100.00;96822.84;5000180;28;20038;-72
2023/08/09 09:28:39;;;;;;;5.78;2.17;;;;;;;17.54;100.00;96821.53;4994880;28;20491;-70
2023/08/09 09:31:05;;;;;;;6.00;2.30;;;;;;;17.56;100.00;96819.16;4998858;28;20111;-72
2023/08/09 09:33:34;;;;;;;5.88;2.50;;;;;;;17.52;100.00;96823.13;5003146;28;20422;-70
2023/08/09 09:36:01;;;;;;;8.77;2.60;;;;;;;17.47;100.00;96815.28;5001273;28;20399;-70
2023/08/09 09:38:27;;;;;;;6.95;2.38;;;;;;;17.52;100.00;96821.16;4998171;28;20045;-69
2023/08/09 09:40:52;;;;;;;4.05;2.20;;;;;;;17.48;100.00;96825.16;5001358;28;20046;-70
2023/08/09 09:43:17;;;;;;;3.85;2.00;;;;;;;17.58;100.00;96825.06;4999046;28;20041;-70
2023/08/09 09:45:44;;;;;;;5.03;2.75;;;;;;;17.76;100.00;96824.88;5003110;28;20042;-70
2023/08/09 09:48:19;;;;;;;4.93;2.40;;;;;;;17.86;100.00;96823.25;4997946;28;20038;-71
2023/08/09 09:50:45;;;;;;;5.65;2.30;;;;;;;17.94;100.00;96815.63;5003509;28;20034;-70
2023/08/09 09:53:15;;;;;;;3.85;1.98;;;;;;;18.08;100.00;96820.25;5001080;28;20044;-70
2023/08/09 09:55:41;;;;;;;7.05;2.22;;;;;;;18.15;100.00;96822.94;5005466;28;20137;-69
2023/08/09 09:58:07;;;;;;;5.80;2.08;;;;;;;18.26;100.00;96823.59;5000875;28;20034;-68
2023/08/09 10:00:33;;;;;;;5.85;1.83;;;;;;;18.28;100.00;96821.19;5005860;28;20038;-70
2023/08/09 10:03:04;;;;;;;11.80;2.38;;;;;;;18.39;100.00;96828.59;5003933;28;20104;-69
2023/08/09 10:05:35;;;;;;;6.53;1.83;;;;;;;18.49;100.00;96833.19;5000762;28;20042;-67
2023/08/09 10:08:06;;;;;;;5.60;1.75;;;;;;;18.84;100.00;96826.41;5002622;28;20530;-67
2023/08/09 10:10:33;;;;;;;6.68;1.88;;;;;;;19.02;100.00;96833.72;4993672;28;20046;-68
2023/08/09 10:13:03;;;;;;;6.68;2.05;;;;;;;18.99;99.93;96828.97;5004487;28;20046;-68
2023/08/09 10:15:34;;;;;;;3.97;1.77;;;;;;;18.62;100.00;96825.91;5003113;28;20048;-68
2023/08/09 10:18:10;;;;;;;4.82;1.70;;;;;;;18.62;100.00;96830.66;5005036;28;20391;-68
2023/08/09 10:20:40;;;;;;;5.38;2.05;;;;;;;18.69;100.00;96828.59;5002100;28;20038;-69
2023/08/09 10:23:06;;;;;;;5.55;2.10;;;;;;;18.69;100.00;96834.13;4999838;28;20125;-69
2023/08/09 10:25:51;;;;;;;6.32;2.22;;;;;;;18.79;100.00;96837.94;5003213;28;20427;-67
2023/08/09 10:28:17;;;;;;;3.55;1.95;;;;;;;19.05;99.21;96833.66;5009794;28;20057;-67
2023/08/09 10:30:44;;;;;;;7.30;3.20;;;;;;;19.02;98.18;96836.47;4999548;28;20034;-68
2023/08/09 10:33:10;;;;;;;7.15;1.90;;;;;;;19.12;97.59;96845.84;4998767;28;20666;-68
2023/08/09 10:35:48;;;;;;;4.53;1.90;;;;;;;19.17;95.89;96843.38;5004436;28;20046;-67
2023/08/09 10:38:38;;;;;;;6.85;2.13;;;;;;;19.26;98.01;96846.41;4998766;28;20045;-68
2023/08/09 10:41:14;;;;;;;4.18;1.55;;;;;;;19.44;94.10;96846.13;4998726;28;20054;-68
2023/08/09 10:43:39;;;;;;;7.50;2.03;;;;;;;19.54;96.33;96844.38;5003158;28;20034;-67
2023/08/09 10:46:23;;;;;;;4.45;2.15;;;;;;;19.72;94.77;96846.84;4997152;28;20038;-68
2023/08/09 10:48:58;;;;;;;4.90;2.03;;;;;;;19.70;92.64;96843.72;5003159;28;20068;-67
2023/08/09 10:51:24;;;;;;;4.10;1.90;;;;;;;19.82;90.36;96840.31;4998741;28;20497;-67
2023/08/09 10:54:05;;;;;;;3.67;1.90;;;;;;;19.74;90.61;96838.13;5002232;28;20042;-67
2023/08/09 10:56:46;;;;;;;3.85;1.83;;;;;;;19.82;90.73;96842.34;5001834;28;20124;-68
2023/08/09 10:59:27;;;;;;;6.03;1.88;;;;;;;19.93;88.12;96828.25;4999133;28;20125;-69
2023/08/09 11:01:56;;;;;;;4.28;2.00;;;;;;;20.19;83.25;96824.56;5001884;28;20049;-68
2023/08/09 11:04:22;;;;;;;3.35;1.73;;;;;;;20.09;85.17;96824.78;4998445;28;20137;-68
2023/08/09 11:06:49;;;;;;;3.80;1.70;;;;;;;20.04;84.27;96826.03;5006810;28;20133;-68
2023/08/09 11:09:26;;;;;;;6.07;2.10;;;;;;;20.19;82.03;96832.91;5003443;28;20546;-69
2023/08/09 11:11:53;;;;;;;2.72;1.80;;;;;;;19.83;83.68;96832.78;5005950;28;20176;-69
2023/08/09 11:14:21;;;;;;;4.55;1.83;;;;;;;20.09;83.33;96830.31;4995565;28;20406;-68
2023/08/09 11:16:48;;;;;;;6.32;2.00;;;;;;;20.18;80.46;96831.31;5001461;28;20042;-68
2023/08/09 11:19:16;;;;;;;4.00;1.73;;;;;;;20.46;79.05;96820.06;4995604;28;20036;-68
2023/08/09 11:21:48;;;;;;;3.80;1.95;;;;;;;20.56;80.90;96819.84;5003716;28;20128;-67
2023/08/09 11:24:16;;;;;;;4.10;1.70;;;;;;;20.91;78.40;96823.06;4997183;28;20130;-67